Weather reports worldwide

Advertisment
Cervera de Pisuerga, Spain (8058): temperature & dewpoint: 19.09.2020 03:00:00 - 25.09.2020 03:00:00 (CEST)Cervera de Pisuerga, Spain (8058): wind speed & gusts: 19.09.2020 03:00:00 - 25.09.2020 03:00:00 (CEST)Cervera de Pisuerga, Spain (8058): wind direction: 19.09.2020 03:00:00 - 25.09.2020 03:00:00 (CEST)Cervera de Pisuerga, Spain (8058): visibility: 19.09.2020 03:00:00 - 25.09.2020 03:00:00 (CEST)Cervera de Pisuerga, Spain (8058): sunshine duration: 19.09.2020 03:00:00 - 25.09.2020 03:00:00 (CEST)Cervera de Pisuerga, Spain (8058): precipitation: 19.09.2020 03:00:00 - 25.09.2020 03:00:00 (CEST)
Date & Time tt [°C] td [°C] ff [km/h] ff [kn] fx [km/h] fx [kn] dd vv [km] sd [min] rr [mm]
25.09.2020 03:00:00 - - - - - - - - - -
25.09.2020 02:00:00 6,9 3,6 10 6 21 12 WSW 20 0 -
25.09.2020 01:00:00 7,4 4,5 12 7 23 12 W 20 0 0,0
25.09.2020 00:00:00 8,2 5,9 8 4 20 11 SW 20 0 0,5
24.09.2020 23:00:00 - - - - - - - - - -
24.09.2020 22:00:00 - - - - - - - - - -
24.09.2020 21:00:00 - - - - - - - - - -
24.09.2020 20:00:00 11,7 5,3 20 11 47 25 SW 20 4 -
24.09.2020 19:00:00 - - - - - - - - - -
24.09.2020 18:00:00 15,2 4,5 22 12 53 28 SW 20 60 0,0
24.09.2020 17:00:00 16,5 3,6 12 6 55 30 WSW 20 60 0,0
24.09.2020 16:00:00 - - - - - - - - - -
24.09.2020 15:00:00 16,5 3,6 19 10 48 26 WSW 20 51 0,0
24.09.2020 14:00:00 15,8 5,5 23 13 48 26 SW 20 59 -
24.09.2020 13:00:00 14,9 5,6 22 12 45 24 SW 20 60 0,0
24.09.2020 12:00:00 13,4 5,6 14 8 39 21 SW 20 60 0,0
24.09.2020 11:00:00 11,3 7,0 14 7 28 15 SW 20 31 0,0
24.09.2020 10:00:00 8,7 8,1 6 4 20 11 WNW 20 0 0,0
24.09.2020 09:00:00 6,8 6,2 7 4 16 9 SSE 15 0 0,0
24.09.2020 08:00:00 6,2 5,5 10 6 19 11 SSW - 0 -
24.09.2020 07:00:00 6,8 6,1 6 3 19 10 N 11 0 0,0
24.09.2020 06:00:00 - - - - - - - - - -
24.09.2020 05:00:00 8,1 7,3 4 2 18 10 N 19 0 0,0
24.09.2020 04:00:00 - - - - - - - - - -
24.09.2020 03:00:00 9,1 8,1 4 2 19 10 WNW 17 0 0,0
24.09.2020 02:00:00 9,5 8,4 4 2 10 5 NE 20 0 -
24.09.2020 01:00:00 10,4 9,0 4 2 17 9 NE 20 0 0,0
24.09.2020 00:00:00 - - - - - - - - - -
23.09.2020 23:00:00 - - - - - - - - - -
23.09.2020 22:00:00 - - - - - - - - - -
23.09.2020 21:00:00 14,4 9,2 11 6 35 19 SW 20 0 0,0
23.09.2020 20:00:00 15,3 10,0 13 7 33 18 SW 20 0 -
23.09.2020 19:00:00 15,9 11,4 12 7 30 16 SW 20 2 0,0
23.09.2020 18:00:00 16,3 11,7 14 8 30 16 SW 20 41 0,0
23.09.2020 17:00:00 15,9 14,2 7 4 33 18 SW 20 13 5,2
23.09.2020 16:00:00 15,4 11,0 10 6 22 12 NW 20 5 0,1
23.09.2020 15:00:00 16,2 10,9 6 3 32 18 WSW 20 0 0,0
23.09.2020 14:00:00 16,5 10,3 14 8 32 18 SW 20 5 -
23.09.2020 13:00:00 16,9 11,0 15 8 32 17 SW 20 17 0,0
23.09.2020 12:00:00 14,7 10,3 11 6 29 16 SW 20 9 0,0
23.09.2020 11:00:00 14,1 11,2 18 10 31 17 SW 20 2 0,0
23.09.2020 10:00:00 - - - - - - - - - -
23.09.2020 09:00:00 11,8 10,0 14 8 - - WSW 20 0 0,0
23.09.2020 08:00:00 11,6 9,7 - - - - - 20 0 -
23.09.2020 07:00:00 11,5 9,2 5 3 26 14 WSW 20 0 0,0
23.09.2020 06:00:00 11,5 9,0 8 4 24 13 SW 20 0 0,0
23.09.2020 05:00:00 - - - - - - - - - -
23.09.2020 04:00:00 10,9 8,7 5 3 27 15 SW 20 0 0,0
23.09.2020 03:00:00 - - - - - - - - - -
23.09.2020 02:00:00 9,8 7,7 3 2 15 8 NW 20 0 -
23.09.2020 01:00:00 - - - - - - - - - -
23.09.2020 00:00:00 11,9 8,4 3 1 19 11 WSW 20 0 0,0
22.09.2020 23:00:00 14,0 8,8 4 2 19 11 SSW 20 0 0,0
22.09.2020 22:00:00 13,9 8,8 5 3 29 16 NNW 20 0 0,0
22.09.2020 21:00:00 14,5 8,3 3 2 19 10 SSW 20 0 0,0
22.09.2020 20:00:00 15,4 7,7 5 3 29 16 SW 20 4 -
22.09.2020 19:00:00 - - - - - - - - - -
22.09.2020 18:00:00 19,2 8,8 10 5 33 18 SSW 20 32 0,0
22.09.2020 17:00:00 - - - - - - - - - -
22.09.2020 16:00:00 17,3 8,4 8 4 31 17 SSW 20 4 0,0
22.09.2020 15:00:00 20,3 9,2 15 8 36 19 SSW 20 58 0,0
22.09.2020 14:00:00 17,1 11,1 10 6 28 15 SSE 20 34 -
22.09.2020 13:00:00 19,2 11,4 11 6 21 12 SSE 20 58 0,0
22.09.2020 12:00:00 16,4 12,0 9 5 21 11 ESE 20 60 0,0
22.09.2020 11:00:00 13,7 11,4 9 5 - - SE 20 37 0,0
22.09.2020 10:00:00 - - - - - - - - - -
22.09.2020 09:00:00 8,3 7,6 9 5 - - WNW 20 5 0,0
22.09.2020 08:00:00 8,1 7,3 8 5 24 13 WNW 20 0 -
22.09.2020 07:00:00 7,9 7,0 15 8 22 12 W 16 0 0,0
22.09.2020 06:00:00 8,5 7,7 9 5 24 13 WNW 20 0 0,0
22.09.2020 05:00:00 - - - - - - - - - -
22.09.2020 04:00:00 - - - - - - - - - -
22.09.2020 03:00:00 8,9 8,0 8 5 23 13 WNW 11 0 0,0
22.09.2020 02:00:00 9,8 8,9 3 2 19 11 NW 20 0 -
22.09.2020 01:00:00 10,4 9,4 4 2 19 11 NNW 20 0 0,0
22.09.2020 00:00:00 11,3 10,0 3 2 18 10 WNW 20 0 0,0
21.09.2020 23:00:00 11,6 10,3 4 2 18 10 NNW 20 0 0,0
21.09.2020 22:00:00 11,7 10,3 2 1 8 5 WNW 20 0 0,0
21.09.2020 21:00:00 12,4 9,9 4 2 11 6 E 20 0 0,0
21.09.2020 20:00:00 13,5 10,6 1 1 5 3 NNE 20 1 -
21.09.2020 19:00:00 15,2 11,2 2 1 8 5 ENE 20 1 0,0
21.09.2020 18:00:00 15,7 11,4 3 2 12 6 SE 20 0 0,2
21.09.2020 17:00:00 16,1 11,9 - - - - - 20 0 0,0
21.09.2020 16:00:00 14,7 12,4 3 2 13 7 SSE 20 0 0,6
21.09.2020 15:00:00 14,1 11,4 5 3 23 12 SW 20 0 1,0
21.09.2020 14:00:00 16,6 11,1 8 4 27 14 S 20 12 -
21.09.2020 13:00:00 - - - - - - - - - -
21.09.2020 12:00:00 15,1 12,2 3 2 19 10 ENE 20 34 0,0
21.09.2020 11:00:00 - - - - - - - - - -
21.09.2020 10:00:00 10,2 9,3 2 1 20 11 NNW 20 6 0,0
21.09.2020 09:00:00 8,3 7,6 11 6 22 12 WNW 20 11 0,0
21.09.2020 08:00:00 7,8 6,8 5 3 19 11 NW 18 0 -
21.09.2020 07:00:00 8,5 7,7 10 5 22 12 WNW 20 0 0,0
21.09.2020 06:00:00 9,1 8,1 8 4 21 12 NW 20 0 0,0
21.09.2020 05:00:00 9,2 8,4 9 5 22 12 WNW 20 0 0,0
21.09.2020 04:00:00 9,1 8,1 5 3 21 12 NW 20 0 0,0
21.09.2020 03:00:00 9,5 8,5 10 5 21 11 WNW 17 0 0,0
21.09.2020 02:00:00 10,1 9,2 6 3 19 11 WNW 20 0 -
21.09.2020 01:00:00 10,8 9,7 5 3 18 10 WNW 20 0 0,0
21.09.2020 00:00:00 - - - - - - - - - -
20.09.2020 23:00:00 - - - - - - - - - -
20.09.2020 22:00:00 11,5 10,4 4 2 18 10 WNW 20 0 0,0
20.09.2020 21:00:00 11,8 10,4 1 1 7 4 NE 20 0 0,0
20.09.2020 20:00:00 12,9 10,8 5 3 9 5 NW 20 0 -
20.09.2020 19:00:00 13,0 11,2 2 1 8 4 W 8 0 1,5
20.09.2020 18:00:00 14,0 10,0 3 2 14 8 NNW 15 0 0,2
20.09.2020 17:00:00 - - - - - - - - - -
20.09.2020 16:00:00 - - - - - - - - - -
20.09.2020 15:00:00 16,9 11,3 3 2 22 12 SSE 20 8 0,0
20.09.2020 14:00:00 15,2 12,1 3 1 7 4 ESE 20 0 -
20.09.2020 13:00:00 13,9 12,1 3 2 9 5 ESE 18 0 1,2
20.09.2020 12:00:00 - - - - - - - - - -
20.09.2020 11:00:00 - - - - - - - - - -
20.09.2020 10:00:00 - - - - - - - - - -
20.09.2020 09:00:00 8,0 7,0 11 6 22 12 W 20 2 0,0
20.09.2020 08:00:00 8,0 7,1 11 6 20 11 WNW 20 0 -
20.09.2020 07:00:00 7,6 6,4 5 3 19 11 W 20 0 0,0
20.09.2020 06:00:00 8,3 7,1 8 4 21 11 W 20 0 0,0
20.09.2020 05:00:00 - - - - - - - - - -
20.09.2020 04:00:00 - - - - - - - - - -
20.09.2020 03:00:00 9,0 8,0 8 4 23 12 NW 20 0 0,0
20.09.2020 02:00:00 9,0 7,7 12 6 20 11 W 20 0 -
20.09.2020 01:00:00 10,7 8,9 4 2 18 10 NW 20 0 0,0
20.09.2020 00:00:00 - - - - - - - - - -
19.09.2020 23:00:00 - - - - - - - - - -
19.09.2020 22:00:00 13,1 9,9 3 2 11 6 SE 20 0 0,0
19.09.2020 21:00:00 13,6 10,0 3 2 13 7 E 20 0 0,0
19.09.2020 20:00:00 15,8 10,5 4 2 15 8 NNE 20 5 -
19.09.2020 19:00:00 16,9 8,4 6 3 29 16 W 20 32 0,0
19.09.2020 18:00:00 16,8 8,5 7 4 32 17 W 20 2 0,0
19.09.2020 17:00:00 16,4 8,7 7 4 32 18 W 20 0 0,0
19.09.2020 16:00:00 - - - - - - - - - -
19.09.2020 15:00:00 16,2 9,2 11 6 35 19 W 20 0 0,0
19.09.2020 14:00:00 16,3 9,4 12 6 32 17 W 20 9 -
19.09.2020 13:00:00 - - - - - - - - - -
19.09.2020 12:00:00 14,1 10,6 4 2 18 10 NNW 20 22 0,0
19.09.2020 11:00:00 12,0 10,5 3 2 20 11 NNW 20 2 0,0
19.09.2020 10:00:00 11,3 10,6 7 4 19 11 SW 20 0 0,0
19.09.2020 09:00:00 9,8 9,2 7 4 18 10 WNW 12 0 0,0
19.09.2020 08:00:00 9,5 8,8 4 2 17 9 NNE 19 0 -
19.09.2020 07:00:00 9,8 8,9 5 3 17 9 E 20 0 0,0
19.09.2020 06:00:00 10,2 9,3 4 2 26 14 N 20 0 0,0
19.09.2020 05:00:00 - - - - - - - - - -
19.09.2020 04:00:00 - - - - - - - - - -
19.09.2020 03:00:00 10,6 9,2 6 3 22 12 WSW 20 0 0,0

tt = temperature
td = dewpoint
ff = wind speed
fx = gusts
dd = wind direction
vv = visibility
sd = sunshine duration
rr = precipitation

Next stations